Time;durP1;ratioP1;P1;durP2;ratioP2;P2;SDS_P1;SDS_P2;PMS_P1;PMS_P2;Temp;Humidity;BMP_temperature;BMP_pressure;BME280_temperature;BME280_humidity;BME280_pressure;Samples;Min_cycle;Max_cycle;Signal;HPM_P1;HPM_P2
2022/02/18 00:01:04;;;;;;;;;9.00;6.75;;;;;;;;5055056;28;9462;-80
2022/02/18 00:03:34;;;;;;;;;8.50;7.00;;;;;;;;5054777;28;10355;-80
2022/02/18 00:06:01;;;;;;;;;10.00;6.50;;;;;;;;5057091;28;9644;-80
2022/02/18 00:08:29;;;;;;;;;6.25;6.25;;;;;;;;5032396;28;9696;-80
2022/02/18 00:10:56;;;;;;;;;8.00;7.00;;;;;;;;5056919;28;9514;-81
2022/02/18 00:13:23;;;;;;;;;8.25;6.50;;;;;;;;5059350;28;9568;-82
2022/02/18 00:15:51;;;;;;;;;4.00;4.00;;;;;;;;5055162;28;9543;-80
2022/02/18 00:18:18;;;;;;;;;9.50;6.25;;;;;;;;5058205;28;9595;-80
2022/02/18 00:20:47;;;;;;;;;7.25;7.25;;;;;;;;5057582;28;9536;-81
2022/02/18 00:23:14;;;;;;;;;7.00;6.00;;;;;;;;5061073;28;9469;-80
2022/02/18 00:25:42;;;;;;;;;14.25;8.25;;;;;;;;5057229;28;10202;-81
2022/02/18 00:28:09;;;;;;;;;6.25;3.50;;;;;;;;5055042;28;9421;-81
2022/02/18 00:30:38;;;;;;;;;8.00;8.00;;;;;;;;5051716;28;9416;-80
2022/02/18 00:33:05;;;;;;;;;7.75;6.00;;;;;;;;5055887;28;9487;-81
2022/02/18 00:35:33;;;;;;;;;6.33;5.67;;;;;;;;5044323;28;9390;-80
2022/02/18 00:38:02;;;;;;;;;11.50;8.25;;;;;;;;5049931;28;9424;-82
2022/02/18 00:40:30;;;;;;;;;10.00;10.00;;;;;;;;5068033;28;9520;-82
2022/02/18 00:42:58;;;;;;;;;10.00;8.25;;;;;;;;5067809;28;9828;-81
2022/02/18 00:45:25;;;;;;;;;15.00;10.00;;;;;;;;5056825;28;9710;-82
2022/02/18 00:47:53;;;;;;;;;10.25;8.00;;;;;;;;5065644;28;9882;-82
2022/02/18 00:50:21;;;;;;;;;12.25;11.25;;;;;;;;5062082;28;9846;-82
2022/02/18 00:52:48;;;;;;;;;8.75;8.75;;;;;;;;5072857;28;9950;-81
2022/02/18 00:55:17;;;;;;;;;12.50;9.00;;;;;;;;5058866;28;9889;-78
2022/02/18 00:57:45;;;;;;;;;12.00;9.50;;;;;;;;5056992;28;9847;-80
2022/02/18 01:00:15;;;;;;;;;10.25;9.75;;;;;;;;5062790;28;9875;-80
2022/02/18 01:02:42;;;;;;;;;13.25;11.75;;;;;;;;5063066;28;10569;-81
2022/02/18 01:05:10;;;;;;;;;13.50;8.50;;;;;;;;5062405;28;10028;-81
2022/02/18 01:07:37;;;;;;;;;13.00;8.75;;;;;;;;5059894;28;10033;-82
2022/02/18 01:10:06;;;;;;;;;7.75;7.75;;;;;;;;5052151;28;9971;-80
2022/02/18 01:12:36;;;;;;;;;10.00;8.00;;;;;;;;5052556;28;9942;-83
2022/02/18 01:15:03;;;;;;;;;13.25;8.75;;;;;;;;5062900;28;9968;-81
2022/02/18 01:17:31;;;;;;;;;13.75;9.25;;;;;;;;5054088;28;9935;-80
2022/02/18 01:19:58;;;;;;;;;8.00;5.50;;;;;;;;5065091;28;9875;-80
2022/02/18 01:22:26;;;;;;;;;9.00;7.25;;;;;;;;5060047;28;9876;-82
2022/02/18 01:24:53;;;;;;;;;10.75;7.00;;;;;;;;5052902;28;9962;-81
2022/02/18 01:27:20;;;;;;;;;9.00;7.00;;;;;;;;5061182;28;9960;-79
2022/02/18 01:29:49;;;;;;;;;11.25;9.50;;;;;;;;5047910;28;9952;-81
2022/02/18 01:32:17;;;;;;;;;12.00;7.75;;;;;;;;5053658;28;9829;-80
2022/02/18 01:34:44;;;;;;;;;7.25;7.25;;;;;;;;5054738;28;10142;-78
2022/02/18 01:37:12;;;;;;;;;9.50;9.50;;;;;;;;5060425;28;9912;-81
2022/02/18 01:39:40;;;;;;;;;12.50;6.50;;;;;;;;5057012;28;9940;-81
2022/02/18 01:42:07;;;;;;;;;6.00;6.00;;;;;;;;5051527;28;10244;-80
2022/02/18 01:44:36;;;;;;;;;7.50;6.00;;;;;;;;5049582;28;9949;-81
2022/02/18 01:47:06;;;;;;;;;12.50;8.75;;;;;;;;5055228;28;10049;-80
2022/02/18 01:49:33;;;;;;;;;12.75;7.75;;;;;;;;5051923;28;10036;-79
2022/02/18 01:52:01;;;;;;;;;6.50;6.50;;;;;;;;5054476;28;10735;-82
2022/02/18 01:54:29;;;;;;;;;6.00;3.50;;;;;;;;5074224;28;10138;-81
2022/02/18 01:56:56;;;;;;;;;8.00;7.50;;;;;;;;5047804;28;10150;-80
2022/02/18 01:59:26;;;;;;;;;6.75;6.00;;;;;;;;5060871;28;10118;-76
2022/02/18 02:01:53;;;;;;;;;10.25;8.00;;;;;;;;5060662;28;10073;-79
2022/02/18 02:04:22;;;;;;;;;6.00;6.00;;;;;;;;5061556;28;10121;-79
2022/02/18 02:06:51;;;;;;;;;8.00;6.50;;;;;;;;5049040;28;10082;-79
2022/02/18 02:09:18;;;;;;;;;7.00;5.50;;;;;;;;5060205;28;10244;-80
2022/02/18 02:11:46;;;;;;;;;8.25;7.25;;;;;;;;5061496;28;10143;-81
2022/02/18 02:14:13;;;;;;;;;7.50;6.00;;;;;;;;5060895;28;10081;-83
2022/02/18 02:16:42;;;;;;;;;7.00;6.75;;;;;;;;5052387;28;10063;-83
2022/02/18 02:19:09;;;;;;;;;15.25;7.00;;;;;;;;5062731;28;10047;-82
2022/02/18 02:21:38;;;;;;;;;10.00;6.50;;;;;;;;5061835;28;10874;-81
2022/02/18 02:24:07;;;;;;;;;5.00;5.00;;;;;;;;5057736;28;10043;-80
2022/02/18 02:26:35;;;;;;;;;9.25;4.50;;;;;;;;5049832;28;9977;-82
2022/02/18 02:29:02;;;;;;;;;3.00;2.00;;;;;;;;5059067;28;10692;-81
2022/02/18 02:31:30;;;;;;;;;7.25;3.25;;;;;;;;5059788;28;10622;-80
2022/02/18 02:33:57;;;;;;;;;4.50;4.50;;;;;;;;5054646;28;10099;-81
2022/02/18 02:36:24;;;;;;;;;5.50;3.00;;;;;;;;5039576;28;10187;-81
2022/02/18 02:38:52;;;;;;;;;6.50;3.50;;;;;;;;5041602;28;10151;-82
2022/02/18 02:41:22;;;;;;;;;5.00;3.00;;;;;;;;5026599;28;10234;-82
2022/02/18 02:43:50;;;;;;;;;5.50;4.25;;;;;;;;5047006;28;10132;-81
2022/02/18 02:46:17;;;;;;;;;3.50;2.75;;;;;;;;5053607;28;10014;-82
2022/02/18 02:48:45;;;;;;;;;1.50;1.00;;;;;;;;5045173;28;10794;-82
2022/02/18 02:51:12;;;;;;;;;3.00;1.50;;;;;;;;5053150;28;10158;-81
2022/02/18 02:53:40;;;;;;;;;3.00;3.00;;;;;;;;5055849;28;10012;-80
2022/02/18 02:56:08;;;;;;;;;5.75;3.00;;;;;;;;5045389;28;10205;-83
2022/02/18 02:58:38;;;;;;;;;3.00;3.00;;;;;;;;5052884;28;10145;-83
2022/02/18 03:01:06;;;;;;;;;3.00;1.00;;;;;;;;5046313;28;10908;-82
2022/02/18 03:03:34;;;;;;;;;4.75;3.50;;;;;;;;5053876;28;11143;-81
2022/02/18 03:06:01;;;;;;;;;5.50;3.00;;;;;;;;5050478;28;10188;-82
2022/02/18 03:08:28;;;;;;;;;3.25;3.25;;;;;;;;5050050;28;10120;-82
2022/02/18 03:13:42;;;;;;;;;8.50;6.00;;;;;;;;5051448;28;10091;-82
2022/02/18 03:16:10;;;;;;;;;5.25;5.25;;;;;;;;5049272;28;10100;-82
2022/02/18 03:18:37;;;;;;;;;5.25;5.25;;;;;;;;5055184;28;10330;-79
2022/02/18 03:21:05;;;;;;;;;8.75;6.75;;;;;;;;5060028;28;10036;-81
2022/02/18 03:23:32;;;;;;;;;7.50;7.50;;;;;;;;5060982;28;10333;-83
2022/02/18 03:26:00;;;;;;;;;6.75;5.00;;;;;;;;5050791;28;10339;-82
2022/02/18 03:28:27;;;;;;;;;9.25;5.00;;;;;;;;5045853;28;10182;-79
2022/02/18 03:30:56;;;;;;;;;7.75;7.75;;;;;;;;5060022;28;10040;-80
2022/02/18 03:33:24;;;;;;;;;7.75;5.75;;;;;;;;5054379;28;10245;-80
2022/02/18 03:35:51;;;;;;;;;3.00;3.00;;;;;;;;5040462;28;10330;-78
2022/02/18 03:38:18;;;;;;;;;8.25;6.75;;;;;;;;5060458;28;10179;-81
2022/02/18 03:40:46;;;;;;;;;7.25;7.25;;;;;;;;5027280;28;10323;-80
2022/02/18 03:43:13;;;;;;;;;8.00;7.25;;;;;;;;5038168;28;10302;-79
2022/02/18 03:45:41;;;;;;;;;7.50;6.75;;;;;;;;5033289;28;10191;-80
2022/02/18 03:48:09;;;;;;;;;7.00;7.00;;;;;;;;5041000;28;10258;-81
2022/02/18 03:50:37;;;;;;;;;7.75;6.25;;;;;;;;5034425;28;10197;-81
2022/02/18 03:53:04;;;;;;;;;8.25;8.00;;;;;;;;5032724;28;10948;-81
2022/02/18 03:55:32;;;;;;;;;9.25;7.50;;;;;;;;5033779;28;10124;-80
2022/02/18 03:57:59;;;;;;;;;10.50;8.00;;;;;;;;5039346;28;10267;-82
2022/02/18 04:00:26;;;;;;;;;8.75;7.25;;;;;;;;5023610;28;10116;-81
2022/02/18 04:02:54;;;;;;;;;10.50;6.00;;;;;;;;5039667;28;10336;-81
2022/02/18 04:05:23;;;;;;;;;6.75;6.75;;;;;;;;5035394;28;10185;-75
2022/02/18 04:07:50;;;;;;;;;8.50;8.50;;;;;;;;5027116;28;10162;-81
2022/02/18 04:10:18;;;;;;;;;7.00;7.00;;;;;;;;5030919;28;10194;-82
2022/02/18 04:12:45;;;;;;;;;8.75;8.75;;;;;;;;5031712;28;10199;-82
2022/02/18 04:15:12;;;;;;;;;8.00;8.00;;;;;;;;5073077;28;10091;-82
2022/02/18 04:17:40;;;;;;;;;11.50;11.00;;;;;;;;5036258;28;10128;-81
2022/02/18 04:20:08;;;;;;;;;6.75;6.75;;;;;;;;5027017;28;10031;-81
2022/02/18 04:22:37;;;;;;;;;7.00;7.00;;;;;;;;5031451;28;12029;-82
2022/02/18 04:25:05;;;;;;;;;11.25;8.25;;;;;;;;5028931;28;9994;-81
2022/02/18 04:27:33;;;;;;;;;6.75;6.75;;;;;;;;5036201;28;9946;-82
2022/02/18 04:30:00;;;;;;;;;6.50;5.50;;;;;;;;5040372;28;9875;-79
2022/02/18 04:32:28;;;;;;;;;13.25;7.50;;;;;;;;5045180;28;9738;-80
2022/02/18 04:34:55;;;;;;;;;13.50;8.50;;;;;;;;5043747;28;9794;-81
2022/02/18 04:37:22;;;;;;;;;4.50;4.00;;;;;;;;5037327;28;9808;-79
2022/02/18 04:39:51;;;;;;;;;3.00;3.00;;;;;;;;5043528;28;9725;-81
2022/02/18 04:42:20;;;;;;;;;8.25;7.75;;;;;;;;5062209;28;9649;-80
2022/02/18 04:44:47;;;;;;;;;7.00;7.00;;;;;;;;5059647;28;9640;-76
2022/02/18 04:47:15;;;;;;;;;12.00;8.00;;;;;;;;5046272;28;9536;-80
2022/02/18 04:49:43;;;;;;;;;6.75;6.75;;;;;;;;5062185;28;9662;-82
2022/02/18 04:52:11;;;;;;;;;3.25;3.25;;;;;;;;5052275;28;9560;-82
2022/02/18 04:54:38;;;;;;;;;9.00;6.00;;;;;;;;5077705;28;9495;-78
2022/02/18 04:57:07;;;;;;;;;3.67;3.67;;;;;;;;5062541;28;9532;-81
2022/02/18 04:59:34;;;;;;;;;4.50;4.50;;;;;;;;5052702;28;9546;-78
2022/02/18 05:02:02;;;;;;;;;6.67;2.67;;;;;;;;5045174;28;9444;-82
2022/02/18 05:04:29;;;;;;;;;4.00;4.00;;;;;;;;5062576;28;9433;-81
2022/02/18 05:06:56;;;;;;;;;2.33;2.33;;;;;;;;5064301;28;9255;-81
2022/02/18 05:09:24;;;;;;;;;2.00;2.00;;;;;;;;5053513;28;9264;-81
2022/02/18 05:11:51;;;;;;;;;3.33;3.33;;;;;;;;5055835;28;9334;-81
2022/02/18 05:14:20;;;;;;;;;3.00;1.00;;;;;;;;5062094;28;9162;-81
2022/02/18 05:16:48;;;;;;;;;1.00;1.00;;;;;;;;5052488;28;9259;-81
2022/02/18 05:19:15;;;;;;;;;2.00;0.33;;;;;;;;5056095;28;8946;-81
2022/02/18 05:21:42;;;;;;;;;0.33;0.33;;;;;;;;5050237;28;8969;-81
2022/02/18 05:24:10;;;;;;;;;0.50;0.50;;;;;;;;5063983;28;9078;-81
2022/02/18 05:26:38;;;;;;;;;0.00;0.00;;;;;;;;5050546;28;8906;-81
2022/02/18 05:29:05;;;;;;;;;0.00;0.00;;;;;;;;5060366;28;8993;-79
2022/02/18 05:31:34;;;;;;;;;0.00;0.00;;;;;;;;5052044;28;8955;-80
2022/02/18 05:34:03;;;;;;;;;0.00;0.00;;;;;;;;5058345;28;8971;-81
2022/02/18 05:36:30;;;;;;;;;0.00;0.00;;;;;;;;5060589;28;8876;-80
2022/02/18 05:38:58;;;;;;;;;0.00;0.00;;;;;;;;5040158;28;8866;-81
2022/02/18 05:41:25;;;;;;;;;0.00;0.00;;;;;;;;5055248;28;8898;-79
2022/02/18 05:43:52;;;;;;;;;0.00;0.00;;;;;;;;5046280;28;8889;-81
2022/02/18 05:46:20;;;;;;;;;0.00;0.00;;;;;;;;5060602;28;8992;-80
2022/02/18 05:48:48;;;;;;;;;0.00;0.00;;;;;;;;5073368;28;8856;-80
2022/02/18 05:51:15;;;;;;;;;0.75;0.00;;;;;;;;5056826;28;8885;-81
2022/02/18 05:53:43;;;;;;;;;0.00;0.00;;;;;;;;5061408;28;8864;-80
2022/02/18 05:56:10;;;;;;;;;0.00;0.00;;;;;;;;5056912;28;8990;-80
2022/02/18 05:58:37;;;;;;;;;0.00;0.00;;;;;;;;5063042;28;8876;-80
2022/02/18 06:01:05;;;;;;;;;1.00;0.00;;;;;;;;5054920;28;8862;-81
2022/02/18 06:03:32;;;;;;;;;0.00;0.00;;;;;;;;5057210;28;8892;-81
2022/02/18 06:06:01;;;;;;;;;0.00;0.00;;;;;;;;5054898;28;8847;-81
2022/02/18 06:08:28;;;;;;;;;0.00;0.00;;;;;;;;5058031;28;8872;-83
2022/02/18 06:10:55;;;;;;;;;0.00;0.00;;;;;;;;5054494;28;8864;-81
2022/02/18 06:13:23;;;;;;;;;0.00;0.00;;;;;;;;5060634;28;8907;-78
2022/02/18 06:15:50;;;;;;;;;0.00;0.00;;;;;;;;5062601;28;8880;-80
2022/02/18 06:18:17;;;;;;;;;0.00;0.00;;;;;;;;5062209;28;8861;-80
2022/02/18 06:20:44;;;;;;;;;0.00;0.00;;;;;;;;5062613;28;9009;-81
2022/02/18 06:23:13;;;;;;;;;0.00;0.00;;;;;;;;5043455;28;8872;-81
2022/02/18 06:25:41;;;;;;;;;0.00;0.00;;;;;;;;5066899;28;8878;-80
2022/02/18 06:28:10;;;;;;;;;0.00;0.00;;;;;;;;5059305;28;8840;-79
2022/02/18 06:30:39;;;;;;;;;0.00;0.00;;;;;;;;5060083;28;8801;-81
2022/02/18 06:33:08;;;;;;;;;0.00;0.00;;;;;;;;5043330;28;9014;-91
2022/02/18 06:35:36;;;;;;;;;0.00;0.00;;;;;;;;5068125;28;8923;-86
2022/02/18 06:38:04;;;;;;;;;0.00;0.00;;;;;;;;5062460;28;8860;-85
2022/02/18 06:40:33;;;;;;;;;0.00;0.00;;;;;;;;5056821;28;8856;-83
2022/02/18 06:43:00;;;;;;;;;0.00;0.00;;;;;;;;5045138;28;8868;-83
2022/02/18 06:45:28;;;;;;;;;1.00;0.00;;;;;;;;5069588;28;8999;-86
2022/02/18 06:47:55;;;;;;;;;0.00;0.00;;;;;;;;5059435;28;8959;-88
2022/02/18 06:50:24;;;;;;;;;1.00;0.00;;;;;;;;5072583;28;8925;-80
2022/02/18 06:52:51;;;;;;;;;0.00;0.00;;;;;;;;5063565;28;9643;-90
2022/02/18 06:55:22;;;;;;;;;0.00;0.00;;;;;;;;5061859;28;9696;-92
2022/02/18 06:57:50;;;;;;;;;0.00;0.00;;;;;;;;5064265;28;8872;-92
2022/02/18 07:00:18;;;;;;;;;0.00;0.00;;;;;;;;5062746;28;9678;-95
2022/02/18 07:02:45;;;;;;;;;0.00;0.00;;;;;;;;5052448;28;8875;-85
2022/02/18 07:05:14;;;;;;;;;0.00;0.00;;;;;;;;5061512;28;8975;-80
2022/02/18 07:07:42;;;;;;;;;0.00;0.00;;;;;;;;5053029;28;8997;-83
2022/02/18 07:10:11;;;;;;;;;0.00;0.00;;;;;;;;5045034;28;8949;-85
2022/02/18 07:12:39;;;;;;;;;1.00;0.00;;;;;;;;5048054;28;8872;-89
2022/02/18 07:15:10;;;;;;;;;0.00;0.00;;;;;;;;5053309;28;9010;-88
2022/02/18 07:17:38;;;;;;;;;0.00;0.00;;;;;;;;5051924;28;8863;-93
2022/02/18 07:20:08;;;;;;;;;0.00;0.00;;;;;;;;5061724;28;8898;-90
2022/02/18 07:22:37;;;;;;;;;1.00;0.00;;;;;;;;5053449;28;8908;-89
2022/02/18 07:25:06;;;;;;;;;0.00;0.00;;;;;;;;5058737;28;9807;-92
2022/02/18 07:27:34;;;;;;;;;0.00;0.00;;;;;;;;5055618;28;8876;-89
2022/02/18 07:30:01;;;;;;;;;0.00;0.00;;;;;;;;5060868;28;8884;-88
2022/02/18 07:32:30;;;;;;;;;0.00;0.00;;;;;;;;5076816;28;8962;-89
2022/02/18 07:34:57;;;;;;;;;0.00;0.00;;;;;;;;5049903;28;8856;-92
2022/02/18 07:37:25;;;;;;;;;0.00;0.00;;;;;;;;5058874;28;8970;-90
2022/02/18 07:39:53;;;;;;;;;0.00;0.00;;;;;;;;5074102;28;8892;-86
2022/02/18 07:42:20;;;;;;;;;0.00;0.00;;;;;;;;5045218;28;8909;-93
2022/02/18 07:44:47;;;;;;;;;0.00;0.00;;;;;;;;5043001;28;8860;-91
2022/02/18 07:47:16;;;;;;;;;0.00;0.00;;;;;;;;5064483;28;8910;-90
2022/02/18 07:49:46;;;;;;;;;0.00;0.00;;;;;;;;5056825;28;8865;-89
2022/02/18 07:52:15;;;;;;;;;0.00;0.00;;;;;;;;5045623;28;8860;-80
2022/02/18 07:54:42;;;;;;;;;0.00;0.00;;;;;;;;5083442;28;8823;-79
2022/02/18 07:57:10;;;;;;;;;0.00;0.00;;;;;;;;5057619;28;8860;-82
2022/02/18 07:59:37;;;;;;;;;0.00;0.00;;;;;;;;5043671;28;8868;-83
2022/02/18 08:02:05;;;;;;;;;1.00;0.00;;;;;;;;5047492;28;8880;-84
2022/02/18 08:04:33;;;;;;;;;0.00;0.00;;;;;;;;5058473;28;8900;-81
2022/02/18 08:07:02;;;;;;;;;0.00;0.00;;;;;;;;5051197;28;8878;-83
2022/02/18 08:09:29;;;;;;;;;0.25;0.00;;;;;;;;5056808;28;8863;-83
2022/02/18 08:11:57;;;;;;;;;0.00;0.00;;;;;;;;5038900;28;8860;-83
2022/02/18 08:14:24;;;;;;;;;0.00;0.00;;;;;;;;5055410;28;8864;-85
2022/02/18 08:16:51;;;;;;;;;0.00;0.00;;;;;;;;5057800;28;8864;-82
2022/02/18 08:19:20;;;;;;;;;0.75;0.00;;;;;;;;5059889;28;8901;-77
2022/02/18 08:21:47;;;;;;;;;0.00;0.00;;;;;;;;5056474;28;8868;-73
2022/02/18 08:24:18;;;;;;;;;0.00;0.00;;;;;;;;5048331;28;8868;-74
2022/02/18 08:26:46;;;;;;;;;0.00;0.00;;;;;;;;5061996;28;9590;-73
2022/02/18 08:29:13;;;;;;;;;0.00;0.00;;;;;;;;5063294;28;8854;-77
2022/02/18 08:31:41;;;;;;;;;0.00;0.00;;;;;;;;5048602;28;9453;-77
2022/02/18 08:34:08;;;;;;;;;0.50;0.00;;;;;;;;5058294;28;8894;-74
2022/02/18 08:36:35;;;;;;;;;0.00;0.00;;;;;;;;5051203;28;8867;-74
2022/02/18 08:39:03;;;;;;;;;0.00;0.00;;;;;;;;5055683;28;8876;-72
2022/02/18 08:41:32;;;;;;;;;0.00;0.00;;;;;;;;5060621;28;9830;-75
2022/02/18 08:44:00;;;;;;;;;0.00;0.00;;;;;;;;5053670;28;8902;-77
2022/02/18 08:46:28;;;;;;;;;0.25;0.00;;;;;;;;5040178;28;8872;-75
2022/02/18 08:48:55;;;;;;;;;0.25;0.00;;;;;;;;5055603;28;8872;-74
2022/02/18 08:51:24;;;;;;;;;0.00;0.00;;;;;;;;5054435;28;8870;-79
2022/02/18 08:53:51;;;;;;;;;0.00;0.00;;;;;;;;5043511;28;8896;-80
2022/02/18 08:56:19;;;;;;;;;1.25;0.00;;;;;;;;5056685;28;8863;-81
2022/02/18 08:58:49;;;;;;;;;0.00;0.00;;;;;;;;5058416;28;9045;-80
2022/02/18 09:01:16;;;;;;;;;0.00;0.00;;;;;;;;5059108;28;8824;-79
2022/02/18 09:03:44;;;;;;;;;0.00;0.00;;;;;;;;5059279;28;8868;-79
2022/02/18 09:06:11;;;;;;;;;3.00;0.00;;;;;;;;5060109;28;8882;-79
2022/02/18 09:08:38;;;;;;;;;0.00;0.00;;;;;;;;5059729;28;8855;-81
2022/02/18 09:11:06;;;;;;;;;0.00;0.00;;;;;;;;5062258;28;8876;-80
2022/02/18 09:13:33;;;;;;;;;0.00;0.00;;;;;;;;5062791;28;9610;-80
2022/02/18 09:16:02;;;;;;;;;0.00;0.00;;;;;;;;5062019;28;8868;-80
2022/02/18 09:18:29;;;;;;;;;0.00;0.00;;;;;;;;5063525;28;8860;-79
2022/02/18 09:20:56;;;;;;;;;0.00;0.00;;;;;;;;5062091;28;8979;-80
2022/02/18 09:23:23;;;;;;;;;0.00;0.00;;;;;;;;5063413;28;8868;-78
2022/02/18 09:25:51;;;;;;;;;0.00;0.00;;;;;;;;5062869;28;8865;-80
2022/02/18 09:28:18;;;;;;;;;0.00;0.00;;;;;;;;5044024;28;8864;-78
2022/02/18 09:30:47;;;;;;;;;0.00;0.00;;;;;;;;5061609;28;8780;-78
2022/02/18 09:33:17;;;;;;;;;0.00;0.00;;;;;;;;5061962;28;8943;-77
2022/02/18 09:35:46;;;;;;;;;0.00;0.00;;;;;;;;5061553;28;8883;-77
2022/02/18 09:38:14;;;;;;;;;1.00;0.00;;;;;;;;5061751;28;8953;-80
2022/02/18 09:40:42;;;;;;;;;0.00;0.00;;;;;;;;5063092;28;8883;-80
2022/02/18 09:43:10;;;;;;;;;0.75;0.00;;;;;;;;5062501;28;8856;-80
2022/02/18 09:45:38;;;;;;;;;1.00;0.00;;;;;;;;5043525;28;8886;-80
2022/02/18 09:48:06;;;;;;;;;0.25;0.00;;;;;;;;5059559;28;8998;-80
2022/02/18 09:50:35;;;;;;;;;1.00;0.00;;;;;;;;5045679;28;8876;-77
2022/02/18 09:53:02;;;;;;;;;0.00;0.00;;;;;;;;5061875;28;8892;-80
2022/02/18 09:55:30;;;;;;;;;0.00;0.00;;;;;;;;5060709;28;8856;-80
2022/02/18 09:57:58;;;;;;;;;0.00;0.00;;;;;;;;5061797;28;8910;-80
2022/02/18 10:00:26;;;;;;;;;0.00;0.00;;;;;;;;5060166;28;8799;-80
2022/02/18 10:02:54;;;;;;;;;0.00;0.00;;;;;;;;5044083;28;8864;-81
2022/02/18 10:05:22;;;;;;;;;0.00;0.00;;;;;;;;5058116;28;8852;-79
2022/02/18 10:08:10;;;;;;;;;0.00;0.00;;;;;;;;5061623;28;8997;-78
2022/02/18 10:10:39;;;;;;;;;0.00;0.00;;;;;;;;5062531;28;8886;-79
2022/02/18 10:13:07;;;;;;;;;0.00;0.00;;;;;;;;5061322;28;8979;-76
2022/02/18 10:15:47;;;;;;;;;0.00;0.00;;;;;;;;5062235;28;8869;-81
2022/02/18 10:18:14;;;;;;;;;0.00;0.00;;;;;;;;5061630;28;8895;-80
2022/02/18 10:20:45;;;;;;;;;0.00;0.00;;;;;;;;5060409;28;8887;-78
2022/02/18 10:23:16;;;;;;;;;0.00;0.00;;;;;;;;5062583;28;8872;-79
2022/02/18 10:25:45;;;;;;;;;0.00;0.00;;;;;;;;5060998;28;8899;-80
2022/02/18 10:28:14;;;;;;;;;0.00;0.00;;;;;;;;5062261;28;8860;-79
2022/02/18 10:30:42;;;;;;;;;1.00;0.00;;;;;;;;5060312;28;8935;-79
2022/02/18 10:33:16;;;;;;;;;0.00;0.00;;;;;;;;5062108;28;8909;-79
2022/02/18 10:35:44;;;;;;;;;0.00;0.00;;;;;;;;5061317;28;9703;-81
2022/02/18 10:38:12;;;;;;;;;1.00;0.00;;;;;;;;5059948;28;9611;-78
2022/02/18 10:40:45;;;;;;;;;0.00;0.00;;;;;;;;5062080;28;8877;-78
2022/02/18 10:43:15;;;;;;;;;0.00;0.00;;;;;;;;5059320;28;8862;-78
2022/02/18 10:45:55;;;;;;;;;0.00;0.00;;;;;;;;5056744;28;8858;-74
2022/02/18 10:48:25;;;;;;;;;0.00;0.00;;;;;;;;5054377;28;9547;-81
2022/02/18 10:51:11;;;;;;;;;0.00;0.00;;;;;;;;5059452;28;8953;-74
2022/02/18 10:53:43;;;;;;;;;0.00;0.00;;;;;;;;5056372;28;8884;-73
2022/02/18 10:56:14;;;;;;;;;0.50;0.50;;;;;;;;5056487;28;9606;-79
2022/02/18 10:58:43;;;;;;;;;0.00;0.00;;;;;;;;5041652;28;8878;-77
2022/02/18 11:01:13;;;;;;;;;0.00;0.00;;;;;;;;5053571;28;8972;-76
2022/02/18 11:03:42;;;;;;;;;0.00;0.00;;;;;;;;5052890;28;9751;-77
2022/02/18 11:06:17;;;;;;;;;0.00;0.00;;;;;;;;5061970;28;8883;-78
2022/02/18 11:09:06;;;;;;;;;0.00;0.00;;;;;;;;5049961;28;8852;-73
2022/02/18 11:11:36;;;;;;;;;0.00;0.00;;;;;;;;5050824;28;8913;-77
2022/02/18 11:14:05;;;;;;;;;0.00;0.00;;;;;;;;5046841;28;8876;-77
2022/02/18 11:16:35;;;;;;;;;0.00;0.00;;;;;;;;5064649;28;8878;-77
2022/02/18 11:19:03;;;;;;;;;0.00;0.00;;;;;;;;5071513;28;8893;-84
2022/02/18 11:21:31;;;;;;;;;0.00;0.00;;;;;;;;5075783;28;8887;-78
2022/02/18 11:24:02;;;;;;;;;2.00;0.00;;;;;;;;5067735;28;8832;-77
2022/02/18 11:26:31;;;;;;;;;0.00;0.00;;;;;;;;5060808;28;8890;-80
2022/02/18 11:29:02;;;;;;;;;0.00;0.00;;;;;;;;5047727;28;9382;-75
2022/02/18 11:31:31;;;;;;;;;0.00;0.00;;;;;;;;5051115;28;8810;-78
2022/02/18 11:34:37;;;;;;;;;0.00;0.00;;;;;;;;5056582;28;8862;-77
2022/02/18 11:37:44;;;;;;;;;0.00;0.00;;;;;;;;5048337;28;9652;-75
2022/02/18 11:40:43;;;;;;;;;0.00;0.00;;;;;;;;5065175;28;9005;-78
2022/02/18 11:43:29;;;;;;;;;0.00;0.00;;;;;;;;5063894;28;8884;-77
2022/02/18 11:46:27;;;;;;;;;0.00;0.00;;;;;;;;5062873;28;8858;-77
2022/02/18 11:48:59;;;;;;;;;0.00;0.00;;;;;;;;5061194;28;8891;-76
2022/02/18 11:51:28;;;;;;;;;0.00;0.00;;;;;;;;5061915;28;8862;-78
2022/02/18 11:53:57;;;;;;;;;0.00;0.00;;;;;;;;5052922;28;8914;-77
2022/02/18 11:56:41;;;;;;;;;0.00;0.00;;;;;;;;5054800;28;8868;-77
2022/02/18 11:59:09;;;;;;;;;0.00;0.00;;;;;;;;5059737;28;9188;-78
2022/02/18 12:02:08;;;;;;;;;0.00;0.00;;;;;;;;5058983;28;10050;-77
2022/02/18 12:04:37;;;;;;;;;0.00;0.00;;;;;;;;5065397;28;9556;-76
2022/02/18 12:07:23;;;;;;;;;0.00;0.00;;;;;;;;5059790;28;9764;-76
2022/02/18 12:10:01;;;;;;;;;0.00;0.00;;;;;;;;5057366;28;9578;-79
2022/02/18 12:12:32;;;;;;;;;0.75;0.75;;;;;;;;5064702;28;9540;-75
2022/02/18 12:15:03;;;;;;;;;0.00;0.00;;;;;;;;5057506;28;9735;-75
2022/02/18 12:17:32;;;;;;;;;0.75;0.00;;;;;;;;5065753;28;9645;-77
2022/02/18 12:20:11;;;;;;;;;0.00;0.00;;;;;;;;5049331;28;9650;-74
2022/02/18 12:22:39;;;;;;;;;0.00;0.00;;;;;;;;5053193;28;9823;-77
2022/02/18 12:25:07;;;;;;;;;0.25;0.25;;;;;;;;5049416;28;9684;-77
2022/02/18 12:27:38;;;;;;;;;1.00;0.00;;;;;;;;5043991;28;9698;-74
2022/02/18 12:30:36;;;;;;;;;0.00;0.00;;;;;;;;5050106;28;9812;-75
2022/02/18 12:33:05;;;;;;;;;1.00;1.00;;;;;;;;5053178;28;9752;-74
2022/02/18 12:35:34;;;;;;;;;0.00;0.00;;;;;;;;5037432;28;9691;-74
2022/02/18 12:38:05;;;;;;;;;1.50;1.00;;;;;;;;5048745;28;9739;-73
2022/02/18 12:40:37;;;;;;;;;0.00;0.00;;;;;;;;5052868;28;10456;-74
2022/02/18 12:43:07;;;;;;;;;0.00;0.00;;;;;;;;5033873;28;10350;-74
2022/02/18 12:45:41;;;;;;;;;0.00;0.00;;;;;;;;5056612;28;9634;-74
2022/02/18 12:48:10;;;;;;;;;0.00;0.00;;;;;;;;5056348;28;10480;-78
2022/02/18 12:50:41;;;;;;;;;0.00;0.00;;;;;;;;5064413;28;9642;-76
2022/02/18 12:53:09;;;;;;;;;0.00;0.00;;;;;;;;5058407;28;9676;-76
2022/02/18 12:55:38;;;;;;;;;0.75;0.00;;;;;;;;5052976;28;9470;-77
2022/02/18 12:58:11;;;;;;;;;0.25;0.00;;;;;;;;5060769;28;9695;-75
2022/02/18 13:00:39;;;;;;;;;0.00;0.00;;;;;;;;5054961;28;10160;-75
2022/02/18 13:03:08;;;;;;;;;0.67;0.67;;;;;;;;5057477;28;9428;-75
2022/02/18 13:05:38;;;;;;;;;0.00;0.00;;;;;;;;5060466;28;9396;-75
2022/02/18 13:08:07;;;;;;;;;0.00;0.00;;;;;;;;5058177;28;9427;-75
2022/02/18 13:10:36;;;;;;;;;0.00;0.00;;;;;;;;5058294;28;9409;-75
2022/02/18 13:13:10;;;;;;;;;0.00;0.00;;;;;;;;5057338;28;9335;-77
2022/02/18 13:15:40;;;;;;;;;0.00;0.00;;;;;;;;5062943;28;9336;-79
2022/02/18 13:18:09;;;;;;;;;0.00;0.00;;;;;;;;5040150;28;9421;-77
2022/02/18 13:20:40;;;;;;;;;1.00;0.00;;;;;;;;5060651;28;9269;-75
2022/02/18 13:23:11;;;;;;;;;0.00;0.00;;;;;;;;5058705;28;9286;-77
2022/02/18 13:25:46;;;;;;;;;0.00;0.00;;;;;;;;5060764;28;9259;-76
2022/02/18 13:28:16;;;;;;;;;0.00;0.00;;;;;;;;5056045;28;9245;-75
2022/02/18 13:30:45;;;;;;;;;1.00;0.00;;;;;;;;5050518;28;9383;-75
2022/02/18 13:33:14;;;;;;;;;0.00;0.00;;;;;;;;5060166;28;9397;-77
2022/02/18 13:35:45;;;;;;;;;0.00;0.00;;;;;;;;5060257;28;9304;-76
2022/02/18 13:38:22;;;;;;;;;0.33;0.00;;;;;;;;5053930;28;9284;-76
2022/02/18 13:41:06;;;;;;;;;0.00;0.00;;;;;;;;5061528;28;10001;-78
2022/02/18 13:43:33;;;;;;;;;0.00;0.00;;;;;;;;5058047;28;10706;-76
2022/02/18 13:46:01;;;;;;;;;0.00;0.00;;;;;;;;5058250;28;9336;-76
2022/02/18 13:48:29;;;;;;;;;0.00;0.00;;;;;;;;5058807;28;9190;-75
2022/02/18 13:50:57;;;;;;;;;0.00;0.00;;;;;;;;5038978;28;10090;-76
2022/02/18 13:53:25;;;;;;;;;0.00;0.00;;;;;;;;5057973;28;9227;-78
2022/02/18 13:55:52;;;;;;;;;0.00;0.00;;;;;;;;5060653;28;9145;-79
2022/02/18 13:58:23;;;;;;;;;0.00;0.00;;;;;;;;5049526;28;9228;-79
2022/02/18 14:00:52;;;;;;;;;1.00;0.00;;;;;;;;5052825;28;9075;-87
2022/02/18 14:03:21;;;;;;;;;0.00;0.00;;;;;;;;5053009;28;9202;-78
2022/02/18 14:05:49;;;;;;;;;0.00;0.00;;;;;;;;5057115;28;9201;-80
2022/02/18 14:08:22;;;;;;;;;0.00;0.00;;;;;;;;5053901;28;9113;-79
2022/02/18 14:10:52;;;;;;;;;0.00;0.00;;;;;;;;5046730;28;10134;-79
2022/02/18 14:13:29;;;;;;;;;0.00;0.00;;;;;;;;5059294;28;9215;-84
2022/02/18 14:16:10;;;;;;;;;0.33;0.33;;;;;;;;5055505;28;10057;-81
2022/02/18 14:18:52;;;;;;;;;1.00;0.00;;;;;;;;5071860;28;9425;-82
2022/02/18 14:21:22;;;;;;;;;0.00;0.00;;;;;;;;5059147;28;9175;-78
2022/02/18 14:23:56;;;;;;;;;0.00;0.00;;;;;;;;5060605;28;9178;-82
2022/02/18 14:26:24;;;;;;;;;0.00;0.00;;;;;;;;5058660;28;9213;-75
2022/02/18 14:28:53;;;;;;;;;0.00;0.00;;;;;;;;5057523;28;9195;-79
2022/02/18 14:31:22;;;;;;;;;0.00;0.00;;;;;;;;5060602;28;9394;-77
2022/02/18 14:34:01;;;;;;;;;0.00;0.00;;;;;;;;5060121;28;9263;-77
2022/02/18 14:36:30;;;;;;;;;0.00;0.00;;;;;;;;5059519;28;9365;-83
2022/02/18 14:38:59;;;;;;;;;0.00;0.00;;;;;;;;5057816;28;9219;-80
2022/02/18 14:41:26;;;;;;;;;1.33;0.00;;;;;;;;5053714;28;9270;-77
2022/02/18 14:43:58;;;;;;;;;2.00;0.00;;;;;;;;5060044;28;9302;-77
2022/02/18 14:46:26;;;;;;;;;3.00;0.00;;;;;;;;5055904;28;9221;-79
2022/02/18 14:48:53;;;;;;;;;2.00;1.00;;;;;;;;5060246;28;9194;-78
2022/02/18 14:51:21;;;;;;;;;0.00;0.00;;;;;;;;5056260;28;9206;-85
2022/02/18 14:53:53;;;;;;;;;0.33;0.33;;;;;;;;5039980;28;9171;-87
2022/02/18 14:56:23;;;;;;;;;0.00;0.00;;;;;;;;5037481;28;9028;-81
2022/02/18 14:58:51;;;;;;;;;0.00;0.00;;;;;;;;5060855;28;9320;-81
2022/02/18 15:01:19;;;;;;;;;0.00;0.00;;;;;;;;5059016;28;8996;-80
2022/02/18 15:03:46;;;;;;;;;1.33;0.67;;;;;;;;5042750;28;9133;-82
2022/02/18 15:06:13;;;;;;;;;1.00;0.00;;;;;;;;5060311;28;9025;-80
2022/02/18 15:08:42;;;;;;;;;2.00;0.00;;;;;;;;5041375;28;9120;-82